sensor_id;sensor_type;location;lat;lon;timestamp;P1;durP1;ratioP1;P2;durP2;ratioP2
12350;SDS011;6240;51.538;7.696;2022-10-19T00:01:12;10.83;;;4.03;;
12350;SDS011;6240;51.538;7.696;2022-10-19T00:03:40;6.63;;;3.70;;
12350;SDS011;6240;51.538;7.696;2022-10-19T00:06:11;8.97;;;4.07;;
12350;SDS011;6240;51.538;7.696;2022-10-19T00:08:38;10.60;;;3.90;;
12350;SDS011;6240;51.538;7.696;2022-10-19T00:11:06;4.93;;;3.80;;
12350;SDS011;6240;51.538;7.696;2022-10-19T00:13:34;8.60;;;4.20;;
12350;SDS011;6240;51.538;7.696;2022-10-19T00:16:01;6.90;;;3.43;;
12350;SDS011;6240;51.538;7.696;2022-10-19T00:18:34;6.07;;;3.70;;
12350;SDS011;6240;51.538;7.696;2022-10-19T00:21:02;7.97;;;3.53;;
12350;SDS011;6240;51.538;7.696;2022-10-19T00:23:29;14.60;;;4.33;;
12350;SDS011;6240;51.538;7.696;2022-10-19T00:25:56;5.23;;;3.37;;
12350;SDS011;6240;51.538;7.696;2022-10-19T00:28:24;6.67;;;3.83;;
12350;SDS011;6240;51.538;7.696;2022-10-19T00:30:51;6.07;;;3.90;;
12350;SDS011;6240;51.538;7.696;2022-10-19T00:33:19;8.23;;;4.67;;
12350;SDS011;6240;51.538;7.696;2022-10-19T00:35:48;7.80;;;4.57;;
12350;SDS011;6240;51.538;7.696;2022-10-19T00:38:15;6.77;;;4.30;;
12350;SDS011;6240;51.538;7.696;2022-10-19T00:40:43;11.00;;;4.40;;
12350;SDS011;6240;51.538;7.696;2022-10-19T00:43:12;9.20;;;4.20;;
12350;SDS011;6240;51.538;7.696;2022-10-19T00:45:40;7.83;;;4.40;;
12350;SDS011;6240;51.538;7.696;2022-10-19T00:48:07;11.27;;;5.30;;
12350;SDS011;6240;51.538;7.696;2022-10-19T00:50:35;10.47;;;4.77;;
12350;SDS011;6240;51.538;7.696;2022-10-19T00:53:03;7.77;;;4.97;;
12350;SDS011;6240;51.538;7.696;2022-10-19T00:55:30;7.83;;;4.80;;
12350;SDS011;6240;51.538;7.696;2022-10-19T00:57:58;9.33;;;5.50;;
12350;SDS011;6240;51.538;7.696;2022-10-19T01:00:26;9.00;;;4.80;;
12350;SDS011;6240;51.538;7.696;2022-10-19T01:02:53;7.43;;;4.60;;
12350;SDS011;6240;51.538;7.696;2022-10-19T01:05:21;10.93;;;5.30;;
12350;SDS011;6240;51.538;7.696;2022-10-19T01:07:48;10.17;;;5.47;;
12350;SDS011;6240;51.538;7.696;2022-10-19T01:10:17;9.67;;;5.50;;
12350;SDS011;6240;51.538;7.696;2022-10-19T01:12:48;10.17;;;5.60;;
12350;SDS011;6240;51.538;7.696;2022-10-19T01:15:20;9.40;;;5.77;;
12350;SDS011;6240;51.538;7.696;2022-10-19T01:17:49;8.47;;;5.53;;
12350;SDS011;6240;51.538;7.696;2022-10-19T01:20:25;8.83;;;5.13;;
12350;SDS011;6240;51.538;7.696;2022-10-19T01:22:59;9.37;;;5.30;;
12350;SDS011;6240;51.538;7.696;2022-10-19T01:25:37;9.70;;;6.03;;
12350;SDS011;6240;51.538;7.696;2022-10-19T01:28:13;10.40;;;5.67;;
12350;SDS011;6240;51.538;7.696;2022-10-19T01:30:46;9.20;;;5.97;;
12350;SDS011;6240;51.538;7.696;2022-10-19T01:33:27;8.33;;;5.63;;
12350;SDS011;6240;51.538;7.696;2022-10-19T01:35:58;9.63;;;5.70;;
12350;SDS011;6240;51.538;7.696;2022-10-19T01:38:28;10.27;;;5.70;;
12350;SDS011;6240;51.538;7.696;2022-10-19T01:41:01;10.40;;;5.57;;
12350;SDS011;6240;51.538;7.696;2022-10-19T01:43:39;8.50;;;5.57;;
12350;SDS011;6240;51.538;7.696;2022-10-19T01:46:09;6.87;;;5.03;;
12350;SDS011;6240;51.538;7.696;2022-10-19T01:48:37;8.37;;;5.20;;
12350;SDS011;6240;51.538;7.696;2022-10-19T01:51:06;11.00;;;6.00;;
12350;SDS011;6240;51.538;7.696;2022-10-19T01:53:38;9.13;;;5.30;;
12350;SDS011;6240;51.538;7.696;2022-10-19T01:56:06;9.40;;;5.67;;
12350;SDS011;6240;51.538;7.696;2022-10-19T01:58:34;10.87;;;5.70;;
12350;SDS011;6240;51.538;7.696;2022-10-19T02:01:03;10.00;;;5.40;;
12350;SDS011;6240;51.538;7.696;2022-10-19T02:03:33;8.77;;;5.10;;
12350;SDS011;6240;51.538;7.696;2022-10-19T02:06:00;7.73;;;5.27;;
12350;SDS011;6240;51.538;7.696;2022-10-19T02:08:29;7.27;;;5.10;;
12350;SDS011;6240;51.538;7.696;2022-10-19T02:10:57;12.97;;;5.67;;
12350;SDS011;6240;51.538;7.696;2022-10-19T02:13:25;8.37;;;5.27;;
12350;SDS011;6240;51.538;7.696;2022-10-19T02:15:53;9.03;;;5.30;;
12350;SDS011;6240;51.538;7.696;2022-10-19T02:18:23;8.77;;;5.00;;
12350;SDS011;6240;51.538;7.696;2022-10-19T02:20:52;10.87;;;5.17;;
12350;SDS011;6240;51.538;7.696;2022-10-19T02:23:21;7.97;;;4.73;;
12350;SDS011;6240;51.538;7.696;2022-10-19T02:25:48;9.93;;;5.40;;
12350;SDS011;6240;51.538;7.696;2022-10-19T02:28:15;9.40;;;4.77;;
12350;SDS011;6240;51.538;7.696;2022-10-19T02:30:42;7.90;;;5.20;;
12350;SDS011;6240;51.538;7.696;2022-10-19T02:33:10;7.70;;;4.50;;
12350;SDS011;6240;51.538;7.696;2022-10-19T02:35:37;7.83;;;4.53;;
12350;SDS011;6240;51.538;7.696;2022-10-19T02:38:06;5.93;;;4.27;;
12350;SDS011;6240;51.538;7.696;2022-10-19T02:40:35;6.00;;;4.30;;
12350;SDS011;6240;51.538;7.696;2022-10-19T02:43:04;9.20;;;4.87;;
12350;SDS011;6240;51.538;7.696;2022-10-19T02:45:34;6.37;;;4.60;;
12350;SDS011;6240;51.538;7.696;2022-10-19T02:48:03;7.73;;;4.77;;
12350;SDS011;6240;51.538;7.696;2022-10-19T02:50:31;5.87;;;4.23;;
12350;SDS011;6240;51.538;7.696;2022-10-19T02:52:58;9.57;;;4.90;;
12350;SDS011;6240;51.538;7.696;2022-10-19T02:55:27;8.70;;;5.07;;
12350;SDS011;6240;51.538;7.696;2022-10-19T02:57:55;5.50;;;4.70;;
12350;SDS011;6240;51.538;7.696;2022-10-19T03:00:22;7.87;;;5.47;;
12350;SDS011;6240;51.538;7.696;2022-10-19T03:02:49;9.73;;;5.70;;
12350;SDS011;6240;51.538;7.696;2022-10-19T03:05:17;9.90;;;5.07;;
12350;SDS011;6240;51.538;7.696;2022-10-19T03:07:44;7.07;;;5.17;;
12350;SDS011;6240;51.538;7.696;2022-10-19T03:10:11;10.67;;;5.87;;
12350;SDS011;6240;51.538;7.696;2022-10-19T03:12:40;8.27;;;6.07;;
12350;SDS011;6240;51.538;7.696;2022-10-19T03:15:07;10.87;;;6.43;;
12350;SDS011;6240;51.538;7.696;2022-10-19T03:17:35;9.83;;;6.17;;
12350;SDS011;6240;51.538;7.696;2022-10-19T03:20:02;11.93;;;6.70;;
12350;SDS011;6240;51.538;7.696;2022-10-19T03:22:29;7.77;;;6.20;;
12350;SDS011;6240;51.538;7.696;2022-10-19T03:24:56;10.77;;;5.67;;
12350;SDS011;6240;51.538;7.696;2022-10-19T03:27:24;7.83;;;5.57;;
12350;SDS011;6240;51.538;7.696;2022-10-19T03:29:52;8.03;;;5.67;;
12350;SDS011;6240;51.538;7.696;2022-10-19T03:32:19;9.97;;;5.80;;
12350;SDS011;6240;51.538;7.696;2022-10-19T03:34:47;8.13;;;5.83;;
12350;SDS011;6240;51.538;7.696;2022-10-19T03:37:14;7.60;;;5.23;;
12350;SDS011;6240;51.538;7.696;2022-10-19T03:39:41;8.37;;;5.23;;
12350;SDS011;6240;51.538;7.696;2022-10-19T03:42:08;7.03;;;5.00;;
12350;SDS011;6240;51.538;7.696;2022-10-19T03:44:35;8.17;;;4.90;;
12350;SDS011;6240;51.538;7.696;2022-10-19T03:47:04;7.37;;;5.00;;
12350;SDS011;6240;51.538;7.696;2022-10-19T03:49:31;5.93;;;5.00;;
12350;SDS011;6240;51.538;7.696;2022-10-19T03:51:58;6.63;;;4.73;;
12350;SDS011;6240;51.538;7.696;2022-10-19T03:54:25;6.23;;;4.70;;
12350;SDS011;6240;51.538;7.696;2022-10-19T03:56:52;7.57;;;5.13;;
12350;SDS011;6240;51.538;7.696;2022-10-19T03:59:19;6.77;;;4.63;;
12350;SDS011;6240;51.538;7.696;2022-10-19T04:01:48;8.47;;;4.80;;
12350;SDS011;6240;51.538;7.696;2022-10-19T04:04:17;7.77;;;4.87;;
12350;SDS011;6240;51.538;7.696;2022-10-19T04:06:46;6.60;;;4.80;;
12350;SDS011;6240;51.538;7.696;2022-10-19T04:09:14;8.87;;;5.40;;
12350;SDS011;6240;51.538;7.696;2022-10-19T04:11:42;5.97;;;4.50;;
12350;SDS011;6240;51.538;7.696;2022-10-19T04:14:09;9.60;;;5.00;;
12350;SDS011;6240;51.538;7.696;2022-10-19T04:16:36;7.97;;;4.40;;
12350;SDS011;6240;51.538;7.696;2022-10-19T04:19:03;6.30;;;4.43;;
12350;SDS011;6240;51.538;7.696;2022-10-19T04:21:33;9.83;;;5.00;;
12350;SDS011;6240;51.538;7.696;2022-10-19T04:24:01;7.40;;;5.00;;
12350;SDS011;6240;51.538;7.696;2022-10-19T04:26:29;8.90;;;4.67;;
12350;SDS011;6240;51.538;7.696;2022-10-19T04:28:56;8.80;;;4.77;;
12350;SDS011;6240;51.538;7.696;2022-10-19T04:31:24;10.07;;;4.43;;
12350;SDS011;6240;51.538;7.696;2022-10-19T04:33:51;5.40;;;4.40;;
12350;SDS011;6240;51.538;7.696;2022-10-19T04:36:18;6.23;;;4.13;;
12350;SDS011;6240;51.538;7.696;2022-10-19T04:38:47;6.77;;;4.13;;
12350;SDS011;6240;51.538;7.696;2022-10-19T04:41:15;7.13;;;4.90;;
12350;SDS011;6240;51.538;7.696;2022-10-19T04:43:42;11.27;;;5.23;;
12350;SDS011;6240;51.538;7.696;2022-10-19T04:46:11;7.30;;;5.00;;
12350;SDS011;6240;51.538;7.696;2022-10-19T04:48:39;7.70;;;4.73;;
12350;SDS011;6240;51.538;7.696;2022-10-19T04:51:07;6.63;;;4.73;;
12350;SDS011;6240;51.538;7.696;2022-10-19T04:53:35;9.03;;;4.30;;
12350;SDS011;6240;51.538;7.696;2022-10-19T04:56:07;8.13;;;4.60;;
12350;SDS011;6240;51.538;7.696;2022-10-19T04:58:36;10.67;;;4.60;;
12350;SDS011;6240;51.538;7.696;2022-10-19T05:01:07;6.00;;;4.33;;
12350;SDS011;6240;51.538;7.696;2022-10-19T05:03:36;7.80;;;4.77;;
12350;SDS011;6240;51.538;7.696;2022-10-19T05:06:03;5.07;;;4.13;;
12350;SDS011;6240;51.538;7.696;2022-10-19T05:08:30;7.87;;;4.23;;
12350;SDS011;6240;51.538;7.696;2022-10-19T05:11:01;9.60;;;4.57;;
12350;SDS011;6240;51.538;7.696;2022-10-19T05:13:30;7.97;;;4.60;;
12350;SDS011;6240;51.538;7.696;2022-10-19T05:15:58;5.60;;;4.67;;
12350;SDS011;6240;51.538;7.696;2022-10-19T05:18:26;5.43;;;4.03;;
12350;SDS011;6240;51.538;7.696;2022-10-19T05:21:01;5.03;;;4.07;;
12350;SDS011;6240;51.538;7.696;2022-10-19T05:23:28;6.70;;;4.30;;
12350;SDS011;6240;51.538;7.696;2022-10-19T05:25:59;5.83;;;4.10;;
12350;SDS011;6240;51.538;7.696;2022-10-19T05:28:27;11.27;;;4.63;;
12350;SDS011;6240;51.538;7.696;2022-10-19T05:31:02;10.67;;;4.50;;
12350;SDS011;6240;51.538;7.696;2022-10-19T05:33:30;7.63;;;4.13;;
12350;SDS011;6240;51.538;7.696;2022-10-19T05:35:58;10.57;;;4.87;;
12350;SDS011;6240;51.538;7.696;2022-10-19T05:38:25;8.33;;;4.03;;
12350;SDS011;6240;51.538;7.696;2022-10-19T05:40:53;6.57;;;4.30;;
12350;SDS011;6240;51.538;7.696;2022-10-19T05:43:23;6.10;;;4.07;;
12350;SDS011;6240;51.538;7.696;2022-10-19T05:45:50;8.60;;;4.53;;
12350;SDS011;6240;51.538;7.696;2022-10-19T05:48:19;7.80;;;4.03;;
12350;SDS011;6240;51.538;7.696;2022-10-19T05:50:54;6.13;;;3.50;;
12350;SDS011;6240;51.538;7.696;2022-10-19T05:53:28;7.07;;;3.77;;
12350;SDS011;6240;51.538;7.696;2022-10-19T05:55:57;11.50;;;4.43;;
12350;SDS011;6240;51.538;7.696;2022-10-19T05:58:24;7.43;;;3.60;;
12350;SDS011;6240;51.538;7.696;2022-10-19T06:00:51;8.67;;;4.00;;
12350;SDS011;6240;51.538;7.696;2022-10-19T06:03:20;10.20;;;3.80;;
12350;SDS011;6240;51.538;7.696;2022-10-19T06:05:47;7.40;;;3.93;;
12350;SDS011;6240;51.538;7.696;2022-10-19T06:08:16;11.30;;;4.10;;
12350;SDS011;6240;51.538;7.696;2022-10-19T06:10:44;11.33;;;4.67;;
12350;SDS011;6240;51.538;7.696;2022-10-19T06:13:11;22.83;;;5.10;;
12350;SDS011;6240;51.538;7.696;2022-10-19T06:15:38;15.80;;;5.00;;
12350;SDS011;6240;51.538;7.696;2022-10-19T06:18:07;11.87;;;4.87;;
12350;SDS011;6240;51.538;7.696;2022-10-19T06:20:40;12.60;;;5.77;;
12350;SDS011;6240;51.538;7.696;2022-10-19T06:23:10;13.83;;;5.57;;
12350;SDS011;6240;51.538;7.696;2022-10-19T06:25:37;14.83;;;5.47;;
12350;SDS011;6240;51.538;7.696;2022-10-19T06:28:04;12.23;;;5.83;;
12350;SDS011;6240;51.538;7.696;2022-10-19T06:30:31;12.67;;;6.70;;
12350;SDS011;6240;51.538;7.696;2022-10-19T06:32:58;8.03;;;5.93;;
12350;SDS011;6240;51.538;7.696;2022-10-19T06:35:26;12.10;;;6.70;;
12350;SDS011;6240;51.538;7.696;2022-10-19T06:37:55;19.43;;;8.03;;
12350;SDS011;6240;51.538;7.696;2022-10-19T06:40:23;18.47;;;7.90;;
12350;SDS011;6240;51.538;7.696;2022-10-19T06:42:50;15.03;;;7.40;;
12350;SDS011;6240;51.538;7.696;2022-10-19T06:45:17;12.57;;;6.40;;
12350;SDS011;6240;51.538;7.696;2022-10-19T06:47:44;16.07;;;6.00;;
12350;SDS011;6240;51.538;7.696;2022-10-19T06:50:13;11.40;;;5.30;;
12350;SDS011;6240;51.538;7.696;2022-10-19T06:52:42;10.13;;;4.03;;
12350;SDS011;6240;51.538;7.696;2022-10-19T06:55:12;7.20;;;4.20;;
12350;SDS011;6240;51.538;7.696;2022-10-19T06:57:42;10.53;;;4.40;;
12350;SDS011;6240;51.538;7.696;2022-10-19T07:00:10;5.70;;;3.53;;
12350;SDS011;6240;51.538;7.696;2022-10-19T07:02:37;5.73;;;3.20;;
12350;SDS011;6240;51.538;7.696;2022-10-19T07:05:05;4.83;;;3.73;;
12350;SDS011;6240;51.538;7.696;2022-10-19T07:07:32;7.33;;;3.83;;
12350;SDS011;6240;51.538;7.696;2022-10-19T07:09:59;5.77;;;3.80;;
12350;SDS011;6240;51.538;7.696;2022-10-19T07:12:28;8.60;;;4.67;;
12350;SDS011;6240;51.538;7.696;2022-10-19T07:14:55;7.30;;;3.80;;
12350;SDS011;6240;51.538;7.696;2022-10-19T07:17:22;7.67;;;4.03;;
12350;SDS011;6240;51.538;7.696;2022-10-19T07:19:49;10.10;;;4.27;;
12350;SDS011;6240;51.538;7.696;2022-10-19T07:22:17;9.23;;;3.63;;
12350;SDS011;6240;51.538;7.696;2022-10-19T07:24:47;6.50;;;3.40;;
12350;SDS011;6240;51.538;7.696;2022-10-19T07:27:17;4.93;;;3.27;;
12350;SDS011;6240;51.538;7.696;2022-10-19T07:29:46;5.57;;;3.17;;
12350;SDS011;6240;51.538;7.696;2022-10-19T07:32:13;6.93;;;4.20;;
12350;SDS011;6240;51.538;7.696;2022-10-19T07:34:40;7.13;;;3.70;;
12350;SDS011;6240;51.538;7.696;2022-10-19T07:37:07;6.27;;;4.00;;
12350;SDS011;6240;51.538;7.696;2022-10-19T07:39:35;5.53;;;4.03;;
12350;SDS011;6240;51.538;7.696;2022-10-19T07:42:03;6.40;;;4.10;;
12350;SDS011;6240;51.538;7.696;2022-10-19T07:44:33;5.50;;;3.73;;
12350;SDS011;6240;51.538;7.696;2022-10-19T07:47:05;4.67;;;4.13;;
12350;SDS011;6240;51.538;7.696;2022-10-19T07:49:33;5.67;;;4.60;;
12350;SDS011;6240;51.538;7.696;2022-10-19T07:52:00;10.07;;;5.00;;
12350;SDS011;6240;51.538;7.696;2022-10-19T07:54:28;6.27;;;4.40;;
12350;SDS011;6240;51.538;7.696;2022-10-19T07:56:55;10.07;;;4.63;;
12350;SDS011;6240;51.538;7.696;2022-10-19T07:59:24;6.70;;;4.83;;
12350;SDS011;6240;51.538;7.696;2022-10-19T08:01:51;7.40;;;4.80;;
12350;SDS011;6240;51.538;7.696;2022-10-19T08:04:22;7.90;;;5.00;;
12350;SDS011;6240;51.538;7.696;2022-10-19T08:06:49;6.17;;;4.93;;
12350;SDS011;6240;51.538;7.696;2022-10-19T08:09:16;7.60;;;5.17;;
12350;SDS011;6240;51.538;7.696;2022-10-19T08:11:44;9.60;;;4.40;;
12350;SDS011;6240;51.538;7.696;2022-10-19T08:14:11;8.40;;;4.83;;
12350;SDS011;6240;51.538;7.696;2022-10-19T08:16:38;7.67;;;5.17;;
12350;SDS011;6240;51.538;7.696;2022-10-19T08:19:09;8.97;;;5.50;;
12350;SDS011;6240;51.538;7.696;2022-10-19T08:21:39;7.80;;;4.90;;
12350;SDS011;6240;51.538;7.696;2022-10-19T08:24:06;7.57;;;4.63;;
12350;SDS011;6240;51.538;7.696;2022-10-19T08:26:35;9.17;;;4.97;;
12350;SDS011;6240;51.538;7.696;2022-10-19T08:29:04;7.80;;;4.50;;
12350;SDS011;6240;51.538;7.696;2022-10-19T08:31:31;4.93;;;4.13;;
12350;SDS011;6240;51.538;7.696;2022-10-19T08:33:58;6.87;;;5.47;;
12350;SDS011;6240;51.538;7.696;2022-10-19T08:36:26;6.80;;;4.20;;
12350;SDS011;6240;51.538;7.696;2022-10-19T08:38:58;6.90;;;5.47;;
12350;SDS011;6240;51.538;7.696;2022-10-19T08:41:28;7.83;;;4.97;;
12350;SDS011;6240;51.538;7.696;2022-10-19T08:44:01;7.77;;;4.70;;
12350;SDS011;6240;51.538;7.696;2022-10-19T08:46:35;9.60;;;5.97;;
12350;SDS011;6240;51.538;7.696;2022-10-19T08:49:06;8.40;;;5.37;;
12350;SDS011;6240;51.538;7.696;2022-10-19T08:51:34;7.07;;;5.20;;
12350;SDS011;6240;51.538;7.696;2022-10-19T08:54:05;8.07;;;5.13;;
12350;SDS011;6240;51.538;7.696;2022-10-19T08:56:39;7.63;;;5.00;;
12350;SDS011;6240;51.538;7.696;2022-10-19T08:59:11;6.50;;;4.90;;
12350;SDS011;6240;51.538;7.696;2022-10-19T09:01:40;9.13;;;4.70;;
12350;SDS011;6240;51.538;7.696;2022-10-19T09:04:12;8.00;;;4.10;;
12350;SDS011;6240;51.538;7.696;2022-10-19T09:06:43;6.20;;;3.40;;
12350;SDS011;6240;51.538;7.696;2022-10-19T09:09:14;8.43;;;4.10;;
12350;SDS011;6240;51.538;7.696;2022-10-19T09:11:43;6.40;;;3.60;;
12350;SDS011;6240;51.538;7.696;2022-10-19T09:14:12;7.00;;;3.80;;
12350;SDS011;6240;51.538;7.696;2022-10-19T09:16:42;7.03;;;3.27;;
12350;SDS011;6240;51.538;7.696;2022-10-19T09:19:11;7.03;;;3.10;;
12350;SDS011;6240;51.538;7.696;2022-10-19T09:21:39;5.00;;;3.47;;
12350;SDS011;6240;51.538;7.696;2022-10-19T09:24:10;3.63;;;3.07;;
12350;SDS011;6240;51.538;7.696;2022-10-19T09:26:45;6.90;;;3.47;;
12350;SDS011;6240;51.538;7.696;2022-10-19T09:29:18;5.57;;;3.20;;
12350;SDS011;6240;51.538;7.696;2022-10-19T09:31:47;5.53;;;2.83;;
12350;SDS011;6240;51.538;7.696;2022-10-19T09:34:19;7.43;;;3.60;;
12350;SDS011;6240;51.538;7.696;2022-10-19T09:36:49;5.13;;;3.03;;
12350;SDS011;6240;51.538;7.696;2022-10-19T09:39:21;4.60;;;2.90;;
12350;SDS011;6240;51.538;7.696;2022-10-19T09:41:55;6.67;;;3.20;;
12350;SDS011;6240;51.538;7.696;2022-10-19T09:44:25;7.73;;;3.17;;
12350;SDS011;6240;51.538;7.696;2022-10-19T09:46:54;7.83;;;3.10;;
12350;SDS011;6240;51.538;7.696;2022-10-19T09:49:37;6.20;;;3.00;;
12350;SDS011;6240;51.538;7.696;2022-10-19T09:52:04;8.43;;;3.03;;
12350;SDS011;6240;51.538;7.696;2022-10-19T09:54:32;4.73;;;2.90;;
12350;SDS011;6240;51.538;7.696;2022-10-19T09:57:02;4.63;;;3.20;;
12350;SDS011;6240;51.538;7.696;2022-10-19T09:59:32;9.77;;;3.20;;
12350;SDS011;6240;51.538;7.696;2022-10-19T10:04:46;6.63;;;3.20;;
12350;SDS011;6240;51.538;7.696;2022-10-19T10:07:15;10.77;;;2.80;;
12350;SDS011;6240;51.538;7.696;2022-10-19T10:09:45;9.20;;;3.20;;
12350;SDS011;6240;51.538;7.696;2022-10-19T10:12:15;5.63;;;2.83;;
12350;SDS011;6240;51.538;7.696;2022-10-19T10:14:42;6.00;;;2.40;;
12350;SDS011;6240;51.538;7.696;2022-10-19T10:17:12;4.43;;;2.67;;
12350;SDS011;6240;51.538;7.696;2022-10-19T10:20:00;6.13;;;2.83;;
12350;SDS011;6240;51.538;7.696;2022-10-19T10:22:29;6.00;;;1.97;;
12350;SDS011;6240;51.538;7.696;2022-10-19T10:24:57;5.40;;;1.50;;
12350;SDS011;6240;51.538;7.696;2022-10-19T10:27:30;6.13;;;1.40;;
12350;SDS011;6240;51.538;7.696;2022-10-19T10:29:58;4.00;;;1.20;;
12350;SDS011;6240;51.538;7.696;2022-10-19T10:32:26;6.50;;;1.63;;
12350;SDS011;6240;51.538;7.696;2022-10-19T10:34:57;4.57;;;1.30;;
12350;SDS011;6240;51.538;7.696;2022-10-19T10:37:27;4.20;;;1.33;;
12350;SDS011;6240;51.538;7.696;2022-10-19T10:39:56;4.97;;;1.30;;
12350;SDS011;6240;51.538;7.696;2022-10-19T10:42:27;3.63;;;1.30;;
12350;SDS011;6240;51.538;7.696;2022-10-19T10:44:58;6.07;;;1.40;;
12350;SDS011;6240;51.538;7.696;2022-10-19T10:47:25;3.47;;;1.40;;
12350;SDS011;6240;51.538;7.696;2022-10-19T10:49:55;2.30;;;1.30;;
12350;SDS011;6240;51.538;7.696;2022-10-19T10:52:24;5.33;;;1.43;;
12350;SDS011;6240;51.538;7.696;2022-10-19T10:54:58;4.40;;;1.33;;
12350;SDS011;6240;51.538;7.696;2022-10-19T10:57:27;2.87;;;1.30;;
12350;SDS011;6240;51.538;7.696;2022-10-19T11:00:04;3.93;;;1.50;;
12350;SDS011;6240;51.538;7.696;2022-10-19T11:02:37;4.60;;;1.30;;
12350;SDS011;6240;51.538;7.696;2022-10-19T11:05:07;4.60;;;1.60;;
12350;SDS011;6240;51.538;7.696;2022-10-19T11:07:39;4.63;;;1.90;;
12350;SDS011;6240;51.538;7.696;2022-10-19T11:10:10;5.03;;;1.50;;
12350;SDS011;6240;51.538;7.696;2022-10-19T11:12:40;3.47;;;1.57;;
12350;SDS011;6240;51.538;7.696;2022-10-19T11:15:12;7.37;;;1.97;;
12350;SDS011;6240;51.538;7.696;2022-10-19T11:17:47;2.47;;;1.70;;
12350;SDS011;6240;51.538;7.696;2022-10-19T11:20:19;6.27;;;2.43;;
12350;SDS011;6240;51.538;7.696;2022-10-19T11:22:49;3.40;;;1.33;;
12350;SDS011;6240;51.538;7.696;2022-10-19T11:25:21;3.70;;;1.37;;
12350;SDS011;6240;51.538;7.696;2022-10-19T11:27:52;4.47;;;1.23;;
12350;SDS011;6240;51.538;7.696;2022-10-19T11:30:24;4.60;;;2.17;;
12350;SDS011;6240;51.538;7.696;2022-10-19T11:32:55;4.27;;;1.50;;
12350;SDS011;6240;51.538;7.696;2022-10-19T11:35:33;7.47;;;2.53;;
12350;SDS011;6240;51.538;7.696;2022-10-19T11:38:07;4.00;;;1.40;;
12350;SDS011;6240;51.538;7.696;2022-10-19T11:40:37;6.07;;;2.23;;
12350;SDS011;6240;51.538;7.696;2022-10-19T11:43:09;7.33;;;2.20;;
12350;SDS011;6240;51.538;7.696;2022-10-19T11:45:47;4.77;;;1.83;;
12350;SDS011;6240;51.538;7.696;2022-10-19T11:48:35;3.03;;;1.30;;
12350;SDS011;6240;51.538;7.696;2022-10-19T11:51:07;3.07;;;1.33;;
12350;SDS011;6240;51.538;7.696;2022-10-19T11:53:36;6.63;;;2.07;;
12350;SDS011;6240;51.538;7.696;2022-10-19T11:56:08;4.13;;;1.57;;
12350;SDS011;6240;51.538;7.696;2022-10-19T11:58:43;5.17;;;1.60;;
12350;SDS011;6240;51.538;7.696;2022-10-19T12:01:27;6.73;;;1.50;;
12350;SDS011;6240;51.538;7.696;2022-10-19T12:04:06;3.47;;;1.43;;
12350;SDS011;6240;51.538;7.696;2022-10-19T12:06:42;3.30;;;1.40;;
12350;SDS011;6240;51.538;7.696;2022-10-19T12:09:23;7.07;;;1.70;;
12350;SDS011;6240;51.538;7.696;2022-10-19T12:11:57;2.73;;;1.63;;
12350;SDS011;6240;51.538;7.696;2022-10-19T12:14:26;6.40;;;2.10;;
12350;SDS011;6240;51.538;7.696;2022-10-19T12:16:57;5.20;;;1.60;;
12350;SDS011;6240;51.538;7.696;2022-10-19T12:19:26;3.83;;;1.60;;
12350;SDS011;6240;51.538;7.696;2022-10-19T12:21:57;3.77;;;1.50;;
12350;SDS011;6240;51.538;7.696;2022-10-19T12:24:26;4.33;;;1.50;;
12350;SDS011;6240;51.538;7.696;2022-10-19T12:26:54;4.60;;;1.77;;
12350;SDS011;6240;51.538;7.696;2022-10-19T12:29:24;5.17;;;1.90;;
12350;SDS011;6240;51.538;7.696;2022-10-19T12:31:55;6.30;;;1.50;;
12350;SDS011;6240;51.538;7.696;2022-10-19T12:34:28;9.47;;;2.07;;
12350;SDS011;6240;51.538;7.696;2022-10-19T12:36:59;4.13;;;1.70;;
12350;SDS011;6240;51.538;7.696;2022-10-19T12:39:29;3.47;;;1.77;;
12350;SDS011;6240;51.538;7.696;2022-10-19T12:42:00;4.17;;;1.70;;
12350;SDS011;6240;51.538;7.696;2022-10-19T12:44:33;4.67;;;1.73;;
12350;SDS011;6240;51.538;7.696;2022-10-19T12:47:13;5.07;;;1.70;;
12350;SDS011;6240;51.538;7.696;2022-10-19T12:49:49;6.20;;;2.03;;
12350;SDS011;6240;51.538;7.696;2022-10-19T12:55:08;9.40;;;1.90;;
12350;SDS011;6240;51.538;7.696;2022-10-19T12:57:36;3.70;;;1.50;;
12350;SDS011;6240;51.538;7.696;2022-10-19T13:00:17;5.20;;;1.73;;
12350;SDS011;6240;51.538;7.696;2022-10-19T13:02:45;5.33;;;1.53;;
12350;SDS011;6240;51.538;7.696;2022-10-19T13:05:20;3.93;;;1.40;;
12350;SDS011;6240;51.538;7.696;2022-10-19T13:07:49;4.43;;;1.30;;
12350;SDS011;6240;51.538;7.696;2022-10-19T13:10:18;5.93;;;1.10;;
12350;SDS011;6240;51.538;7.696;2022-10-19T13:12:49;5.93;;;1.70;;
12350;SDS011;6240;51.538;7.696;2022-10-19T13:18:11;3.70;;;1.37;;
12350;SDS011;6240;51.538;7.696;2022-10-19T13:20:45;6.00;;;1.40;;
12350;SDS011;6240;51.538;7.696;2022-10-19T13:28:52;5.23;;;1.50;;
12350;SDS011;6240;51.538;7.696;2022-10-19T13:31:22;3.97;;;1.30;;
12350;SDS011;6240;51.538;7.696;2022-10-19T13:33:51;6.17;;;1.50;;
12350;SDS011;6240;51.538;7.696;2022-10-19T13:36:20;5.67;;;1.60;;
12350;SDS011;6240;51.538;7.696;2022-10-19T13:39:04;4.27;;;1.30;;
12350;SDS011;6240;51.538;7.696;2022-10-19T13:44:27;3.37;;;1.20;;
12350;SDS011;6240;51.538;7.696;2022-10-19T13:47:15;6.17;;;1.47;;
12350;SDS011;6240;51.538;7.696;2022-10-19T13:49:51;2.80;;;0.97;;
12350;SDS011;6240;51.538;7.696;2022-10-19T13:52:44;6.77;;;1.20;;
12350;SDS011;6240;51.538;7.696;2022-10-19T13:55:20;3.90;;;1.00;;
12350;SDS011;6240;51.538;7.696;2022-10-19T13:57:52;4.47;;;1.10;;
12350;SDS011;6240;51.538;7.696;2022-10-19T14:00:26;2.47;;;1.00;;
12350;SDS011;6240;51.538;7.696;2022-10-19T14:03:08;1.60;;;1.03;;
12350;SDS011;6240;51.538;7.696;2022-10-19T14:05:53;4.43;;;1.20;;
12350;SDS011;6240;51.538;7.696;2022-10-19T14:08:29;3.63;;;1.20;;
12350;SDS011;6240;51.538;7.696;2022-10-19T14:11:02;5.87;;;1.20;;
12350;SDS011;6240;51.538;7.696;2022-10-19T14:13:30;3.90;;;1.00;;
12350;SDS011;6240;51.538;7.696;2022-10-19T14:15:58;4.57;;;0.97;;
12350;SDS011;6240;51.538;7.696;2022-10-19T14:18:28;2.00;;;0.97;;
12350;SDS011;6240;51.538;7.696;2022-10-19T14:20:56;4.47;;;1.30;;
12350;SDS011;6240;51.538;7.696;2022-10-19T14:23:25;3.03;;;1.10;;
12350;SDS011;6240;51.538;7.696;2022-10-19T14:25:54;1.87;;;1.10;;
12350;SDS011;6240;51.538;7.696;2022-10-19T14:28:23;6.50;;;1.93;;
12350;SDS011;6240;51.538;7.696;2022-10-19T14:30:54;1.97;;;1.10;;
12350;SDS011;6240;51.538;7.696;2022-10-19T14:33:22;1.90;;;1.20;;
12350;SDS011;6240;51.538;7.696;2022-10-19T14:35:50;3.20;;;1.17;;
12350;SDS011;6240;51.538;7.696;2022-10-19T14:38:20;2.03;;;1.40;;
12350;SDS011;6240;51.538;7.696;2022-10-19T14:40:50;3.67;;;1.13;;
12350;SDS011;6240;51.538;7.696;2022-10-19T14:43:19;4.90;;;1.50;;
12350;SDS011;6240;51.538;7.696;2022-10-19T14:46:03;3.60;;;1.20;;
12350;SDS011;6240;51.538;7.696;2022-10-19T14:48:35;2.13;;;1.27;;
12350;SDS011;6240;51.538;7.696;2022-10-19T14:51:03;2.90;;;1.67;;
12350;SDS011;6240;51.538;7.696;2022-10-19T14:53:35;5.70;;;1.70;;
12350;SDS011;6240;51.538;7.696;2022-10-19T14:56:05;2.53;;;1.60;;
12350;SDS011;6240;51.538;7.696;2022-10-19T14:58:36;2.87;;;1.10;;
12350;SDS011;6240;51.538;7.696;2022-10-19T15:01:04;6.03;;;1.47;;
12350;SDS011;6240;51.538;7.696;2022-10-19T15:03:32;1.97;;;1.10;;
12350;SDS011;6240;51.538;7.696;2022-10-19T15:06:00;4.80;;;1.60;;
12350;SDS011;6240;51.538;7.696;2022-10-19T15:08:38;2.80;;;1.40;;
12350;SDS011;6240;51.538;7.696;2022-10-19T15:11:07;5.43;;;1.50;;
12350;SDS011;6240;51.538;7.696;2022-10-19T15:13:47;4.13;;;1.60;;
12350;SDS011;6240;51.538;7.696;2022-10-19T15:16:29;2.40;;;1.47;;
12350;SDS011;6240;51.538;7.696;2022-10-19T15:19:00;1.40;;;1.10;;
12350;SDS011;6240;51.538;7.696;2022-10-19T15:21:28;3.00;;;1.83;;
12350;SDS011;6240;51.538;7.696;2022-10-19T15:24:05;3.90;;;1.80;;
12350;SDS011;6240;51.538;7.696;2022-10-19T15:26:49;2.20;;;1.40;;
12350;SDS011;6240;51.538;7.696;2022-10-19T15:29:21;4.37;;;1.50;;
12350;SDS011;6240;51.538;7.696;2022-10-19T15:31:48;6.03;;;1.73;;
12350;SDS011;6240;51.538;7.696;2022-10-19T15:34:24;5.17;;;1.70;;